Aviation Digital Data Service (ADDS)

Output produced by TAFs form (0735 UTC 16 January 2018)
found at http://www.aviationweather.gov/adds/tafs/
 
KMKT 160520Z 1606/1706 32013KT P6SM SCT015 BKN040 
     TEMPO 1606/1610 BKN018 
     FM161400 32008KT P6SM SCT015 
     FM170000 26005KT P6SM SCT120
       
KRST 160553Z 1606/1706 32015KT P6SM OVC015 
     TEMPO 1606/1608 2SM -SN 
     FM161300 32011KT P6SM BKN025 
     FM161800 31009KT P6SM BKN035 
     FM161900 31009KT P6SM SCT045
       
KMSP 160520Z 1606/1712 32012KT P6SM SCT018 BKN050 
     FM161600 30007KT P6SM FEW018 
     FM170000 24004KT P6SM SCT100